地図

経路データ

SID SEASON NUMBER BASIN SUBBASIN NAME ISO_TIME NATURE LAT LON WMO_WIND WMO_PRES WMO_AGENCY TRACK_TYPE DIST2LAND LANDFALL IFLAG USA_AGENCY USA_ATCF_ID USA_LAT USA_LON USA_RECORD USA_STATUS USA_WIND USA_PRES USA_SSHS USA_R34_NE USA_R34_SE USA_R34_SW USA_R34_NW USA_R50_NE USA_R50_SE USA_R50_SW USA_R50_NW USA_R64_NE USA_R64_SE USA_R64_SW USA_R64_NW USA_POCI USA_ROCI USA_RMW USA_EYE TOKYO_LAT TOKYO_LON TOKYO_GRADE TOKYO_WIND TOKYO_PRES TOKYO_R50_DIR TOKYO_R50_LONG TOKYO_R50_SHORT TOKYO_R30_DIR TOKYO_R30_LONG TOKYO_R30_SHORT TOKYO_LAND CMA_LAT CMA_LON CMA_CAT CMA_WIND CMA_PRES HKO_LAT HKO_LON HKO_CAT HKO_WIND HKO_PRES NEWDELHI_LAT NEWDELHI_LON NEWDELHI_GRADE NEWDELHI_WIND NEWDELHI_PRES NEWDELHI_CI NEWDELHI_DP NEWDELHI_POCI REUNION_LAT REUNION_LON REUNION_TYPE REUNION_WIND REUNION_PRES REUNION_TNUM REUNION_CI REUNION_RMW REUNION_R34_NE REUNION_R34_SE REUNION_R34_SW REUNION_R34_NW REUNION_R50_NE REUNION_R50_SE REUNION_R50_SW REUNION_R50_NW REUNION_R64_NE REUNION_R64_SE REUNION_R64_SW REUNION_R64_NW BOM_LAT BOM_LON BOM_TYPE BOM_WIND BOM_PRES BOM_TNUM BOM_CI BOM_RMW BOM_R34_NE BOM_R34_SE BOM_R34_SW BOM_R34_NW BOM_R50_NE BOM_R50_SE BOM_R50_SW BOM_R50_NW BOM_R64_NE BOM_R64_SE BOM_R64_SW BOM_R64_NW BOM_ROCI BOM_POCI BOM_EYE BOM_POS_METHOD BOM_PRES_METHOD NADI_LAT NADI_LON NADI_CAT NADI_WIND NADI_PRES WELLINGTON_LAT WELLINGTON_LON WELLINGTON_WIND WELLINGTON_PRES DS824_LAT DS824_LON DS824_STAGE DS824_WIND DS824_PRES TD9636_LAT TD9636_LON TD9636_STAGE TD9636_WIND TD9636_PRES TD9635_LAT TD9635_LON TD9635_WIND TD9635_PRES TD9635_ROCI NEUMANN_LAT NEUMANN_LON NEUMANN_CLASS NEUMANN_WIND NEUMANN_PRES MLC_LAT MLC_LON MLC_CLASS MLC_WIND MLC_PRES USA_GUST BOM_GUST BOM_GUST_PER REUNION_GUST REUNION_GUST_PER USA_SEAHGT USA_SEARAD_NE USA_SEARAD_SE USA_SEARAD_SW USA_SEARAD_NW STORM_SPEED STORM_DIR
1938325N08132 1938 66 WP MM NOT_NAMED 1938-11-21 10:00:00 NR 7.80000 132.300 main 628 606 __________O___ -1 7.80000 132.300 7 8 296
1938325N08132 1938 66 WP MM NOT_NAMED 1938-11-21 12:00:00 NR 7.91536 132.063 main 606 564 __________P___ -1 7.91536 132.063 7 8 296
1938325N08132 1938 66 WP MM NOT_NAMED 1938-11-21 15:00:00 NR 8.08251 131.715 main 564 532 __________P___ -1 8.08251 131.715 7 7 296
1938325N08132 1938 66 WP MM NOT_NAMED 1938-11-21 18:00:00 NR 8.23486 131.387 main 532 500 __________P___ -1 8.23486 131.387 7 7 294
1938325N08132 1938 66 WP MM NOT_NAMED 1938-11-21 21:00:00 NR 8.36374 131.090 main 502 491 __________P___ -1 8.36374 131.090 7 6 293
1938325N08132 1938 66 WP MM NOT_NAMED 1938-11-21 22:00:00 NR 8.40000 131.000 main 491 471 __________O___ -1 8.40000 131.000 7 5 291
1938325N08132 1938 66 WP MM NOT_NAMED 1938-11-22 00:00:00 NR 8.46174 130.835 main 471 449 __________P___ -1 8.46174 130.835 7 5 289
1938325N08132 1938 66 WP MM NOT_NAMED 1938-11-22 03:00:00 NR 8.53541 130.613 main 449 430 __________P___ -1 8.53541 130.613 7 5 288
1938325N08132 1938 66 WP MM NOT_NAMED 1938-11-22 06:00:00 NR 8.60027 130.402 main 430 412 __________P___ -1 8.60027 130.402 7 5 288
1938325N08132 1938 66 WP MM NOT_NAMED 1938-11-22 09:00:00 NR 8.67192 130.180 main 412 401 __________P___ -1 8.67192 130.180 7 5 289
1938325N08132 1938 66 WP MM NOT_NAMED 1938-11-22 10:00:00 NR 8.70000 130.100 main 401 390 __________O___ -1 8.70000 130.100 7 5 297
1938325N08132 1938 66 WP MM NOT_NAMED 1938-11-22 12:00:00 NR 8.77945 129.959 main 394 366 __________P___ -1 8.77945 129.959 7 5 300
1938325N08132 1938 66 WP MM NOT_NAMED 1938-11-22 15:00:00 NR 8.91147 129.730 main 366 339 __________P___ -1 8.91147 129.730 7 6 298
1938325N08132 1938 66 WP MM NOT_NAMED 1938-11-22 18:00:00 NR 9.04532 129.443 main 339 309 __________P___ -1 9.04532 129.443 7 7 291
1938325N08132 1938 66 WP MM NOT_NAMED 1938-11-22 21:00:00 NR 9.16561 129.057 main 311 289 __________P___ -1 9.16561 129.057 7 8 286
1938325N08132 1938 66 WP MM NOT_NAMED 1938-11-22 22:00:00 NR 9.20000 128.900 main 289 248 __________O___ -1 9.20000 128.900 2 10 280
1938325N08132 1938 66 WP MM NOT_NAMED 1938-11-23 00:00:00 NR 9.25320 128.538 main 248 184 __________P___ -1 9.25320 128.538 2 12 277
1938325N08132 1938 66 WP MM NOT_NAMED 1938-11-23 03:00:00 NR 9.31398 127.894 main 184 112 __________P___ -1 9.31398 127.894 2 14 274
1938325N08132 1938 66 WP MM NOT_NAMED 1938-11-23 06:00:00 NR 9.35752 127.159 main 112 31 __________P___ -1 9.35752 127.159 2 15 273
1938325N08132 1938 66 WP MM NOT_NAMED 1938-11-23 09:00:00 NR 9.39030 126.370 main 31 15 __________P___ -1 9.39030 126.370 2 16 272
1938325N08132 1938 66 WP MM NOT_NAMED 1938-11-23 10:00:00 NR 9.40000 126.100 main 15 0 __________O___ -1 9.40000 126.100 2 16 271
1938325N08132 1938 66 WP MM NOT_NAMED 1938-11-23 12:00:00 NR 9.40159 125.557 main 0 0 __________P___ -1 9.40159 125.557 2 16 270
1938325N08132 1938 66 WP MM NOT_NAMED 1938-11-23 15:00:00 NR 9.39718 124.711 main 35 22 __________P___ -1 9.39718 124.711 2 17 270
1938325N08132 1938 66 WP MM NOT_NAMED 1938-11-23 18:00:00 NR 9.40933 123.863 main 22 0 __________P___ -1 9.40933 123.863 2 16 272
1938325N08132 1938 66 WP MM NOT_NAMED 1938-11-23 21:00:00 NR 9.46619 123.054 main 0 0 __________P___ -1 9.46619 123.054 2 16 275
1938325N08132 1938 66 WP MM NOT_NAMED 1938-11-23 22:00:00 NR 9.50000 122.800 main 0 0 __________O___ -1 9.50000 122.800 2 14 282
1938325N08132 1938 66 WP MM NOT_NAMED 1938-11-24 00:00:00 NR 9.61937 122.338 main 21 21 __________P___ -1 9.61937 122.338 2 14 288
1938325N08132 1938 66 WP MM NOT_NAMED 1938-11-24 03:00:00 NR 9.84978 121.696 main 70 60 __________P___ -1 9.84978 121.696 2 13 291
1938325N08132 1938 66 WP MM NOT_NAMED 1938-11-24 06:00:00 NR 10.1029 121.091 main 93 90 __________P___ -1 10.1029 121.091 2 13 292
1938325N08132 1938 66 WP MM NOT_NAMED 1938-11-24 09:00:00 NR 10.3350 120.499 main 90 66 __________P___ -1 10.3350 120.499 2 13 291
1938325N08132 1938 66 WP MM NOT_NAMED 1938-11-24 10:00:00 NR 10.4000 120.300 main 66 21 __________O___ -1 10.4000 120.300 2 13 284
1938325N08132 1938 66 WP MM NOT_NAMED 1938-11-24 12:00:00 NR 10.4894 119.867 main 21 0 __________P___ -1 10.4894 119.867 2 13 280
1938325N08132 1938 66 WP MM NOT_NAMED 1938-11-24 15:00:00 NR 10.5860 119.218 main 10 10 __________P___ -1 10.5860 119.218 2 13 277
1938325N08132 1938 66 WP MM NOT_NAMED 1938-11-24 18:00:00 NR 10.6484 118.586 main 55 62 __________P___ -1 10.6484 118.586 2 12 275
1938325N08132 1938 66 WP MM NOT_NAMED 1938-11-24 21:00:00 NR 10.6891 117.988 main 110 110 __________P___ -1 10.6891 117.988 2 12 274
1938325N08132 1938 66 WP MM NOT_NAMED 1938-11-24 22:00:00 NR 10.7000 117.800 main 128 128 __________O___ -1 10.7000 117.800 2 11 272
1938325N08132 1938 66 WP MM NOT_NAMED 1938-11-25 00:00:00 NR 10.7093 117.446 main 164 164 __________P___ -1 10.7093 117.446 2 10 271
1938325N08132 1938 66 WP MM NOT_NAMED 1938-11-25 03:00:00 NR 10.7106 116.953 main 189 194 __________P___ -1 10.7106 116.953 2 9 271
1938325N08132 1938 66 WP MM NOT_NAMED 1938-11-25 06:00:00 NR 10.7217 116.492 main 220 220 __________P___ -1 10.7217 116.492 2 9 274
1938325N08132 1938 66 WP MM NOT_NAMED 1938-11-25 09:00:00 NR 10.7705 116.047 main 266 266 __________P___ -1 10.7705 116.047 2 9 278
1938325N08132 1938 66 WP MM NOT_NAMED 1938-11-25 10:00:00 NR 10.8000 115.900 main 274 274 __________O___ -1 10.8000 115.900 3 10 285
1938325N08132 1938 66 WP MM NOT_NAMED 1938-11-25 12:00:00 NR 10.8986 115.574 main 305 313 __________P___ -1 10.8986 115.574 3 10 290
1938325N08132 1938 66 WP MM NOT_NAMED 1938-11-25 15:00:00 NR 11.0909 115.090 main 360 360 __________P___ -1 11.0909 115.090 3 10 294
1938325N08132 1938 66 WP MM NOT_NAMED 1938-11-25 18:00:00 NR 11.3112 114.632 main 416 416 __________P___ -1 11.3112 114.632 3 10 297
1938325N08132 1938 66 WP MM NOT_NAMED 1938-11-25 21:00:00 NR 11.5315 114.222 main 464 464 __________P___ -1 11.5315 114.222 3 9 299
1938325N08132 1938 66 WP MM NOT_NAMED 1938-11-25 22:00:00 NR 11.6000 114.100 main 479 479 __________O___ -1 11.6000 114.100 4 7 300
1938325N08132 1938 66 WP MM NOT_NAMED 1938-11-26 00:00:00 NR 11.7163 113.893 main 489 452 __________P___ -1 11.7163 113.893 4 6 301
1938325N08132 1938 66 WP MM NOT_NAMED 1938-11-26 03:00:00 NR 11.8786 113.632 main 452 429 __________P___ -1 11.8786 113.632 4 6 303
1938325N08132 1938 66 WP MM NOT_NAMED 1938-11-26 06:00:00 NR 12.0262 113.405 main 429 404 __________P___ -1 12.0262 113.405 4 5 302
1938325N08132 1938 66 WP MM NOT_NAMED 1938-11-26 09:00:00 NR 12.1590 113.180 main 404 393 __________P___ -1 12.1590 113.180 4 5 300
1938325N08132 1938 66 WP MM NOT_NAMED 1938-11-26 10:00:00 NR 12.2000 113.100 main 393 370 __________O___ -1 12.2000 113.100 4 6 294
1938325N08132 1938 66 WP MM NOT_NAMED 1938-11-26 12:00:00 NR 12.2808 112.896 main 370 337 __________P___ -1 12.2808 112.896 4 7 290
1938325N08132 1938 66 WP MM NOT_NAMED 1938-11-26 15:00:00 NR 12.3894 112.576 main 337 304 __________P___ -1 12.3894 112.576 4 7 288
1938325N08132 1938 66 WP MM NOT_NAMED 1938-11-26 18:00:00 NR 12.4856 112.263 main 304 271 __________P___ -1 12.4856 112.263 4 6 288
1938325N08132 1938 66 WP MM NOT_NAMED 1938-11-26 21:00:00 NR 12.5725 111.982 main 271 260 __________P___ -1 12.5725 111.982 4 6 288
1938325N08132 1938 66 WP MM NOT_NAMED 1938-11-26 22:00:00 NR 12.6000 111.900 main 260 249 __________O___ -1 12.6000 111.900 4 4 291
1938325N08132 1938 66 WP MM NOT_NAMED 1938-11-27 00:00:00 NR 12.6529 111.771 main 249 228 __________P___ -1 12.6529 111.771 4 4 295
1938325N08132 1938 66 WP MM NOT_NAMED 1938-11-27 03:00:00 NR 12.7261 111.615 main 228 217 __________P___ -1 12.7261 111.615 4 3 297
1938325N08132 1938 66 WP MM NOT_NAMED 1938-11-27 06:00:00 NR 12.7973 111.483 main 217 195 __________P___ -1 12.7973 111.483 4 3 299
1938325N08132 1938 66 WP MM NOT_NAMED 1938-11-27 09:00:00 NR 12.8728 111.349 main 195 195 __________P___ -1 12.8728 111.349 4 3 300
1938325N08132 1938 66 WP MM NOT_NAMED 1938-11-27 10:00:00 NR 12.9000 111.300 main 195 184 __________O___ -1 12.9000 111.300 4 4 299
1938325N08132 1938 66 WP MM NOT_NAMED 1938-11-27 12:00:00 NR 12.9583 111.191 main 184 163 __________P___ -1 12.9583 111.191 4 4 298
1938325N08132 1938 66 WP MM NOT_NAMED 1938-11-27 15:00:00 NR 13.0541 111.003 main 164 142 __________P___ -1 13.0541 111.003 4 4 297
1938325N08132 1938 66 WP MM NOT_NAMED 1938-11-27 18:00:00 NR 13.1571 110.795 main 144 123 __________P___ -1 13.1571 110.795 4 5 297
1938325N08132 1938 66 WP MM NOT_NAMED 1938-11-27 21:00:00 NR 13.2640 110.574 main 127 117 __________P___ -1 13.2640 110.574 4 5 296
1938325N08132 1938 66 WP MM NOT_NAMED 1938-11-27 22:00:00 NR 13.3000 110.500 main 117 __________O___ -1 13.3000 110.500 4 5 297

デジタル台風データ・検索

IBTrACS Databaseについて

本データベースは、米国NOAAが公開する1842年以降の世界の熱帯低気圧のベストトラックデータアーカイブInternational Best Track Archive for Climate Stewardship (IBTrACS)を、ウェブで閲覧しやすい形式に変換したものです。

最終更新日:2021-12-03